Aircraft
UPR1037 PT-BAC ATR-72 500
SWGN
Araguaína Airport
SNCW
Alcântara Space Center Airport
Pilot:: Klebson
Aircraft:: ATR 72-600
Alternate: SBNT
Network: ivao
FLIGHT DETAILS
Distance: 372nm Duration 00h 21m
Cruise Speed: Flight Level: 13000
Validation: Validated Type Charter
Flight Fuel
ZFW: 20948
Block Fuel/Initial FOB: 2551
Flight Fuel: 2072
Cargo
Passengers: 25
Cargo: 120
ROUTE
ROUTE: DCT
REMARKS:
DATE
Date: 26-04-29
Departure Time: 1524
Cargo: 120
FLIGHT DETAILS
Crashed: No
Validator Comments: Validado por Claudenir
Flight Rating: 99
LANDING ANALYSIS
Landing wind: 271º/1 kt
Landing heading: 93º
Landing VS:: -128 ft/min
Landing IAS:: 103 kt
Landing Force G: 1.1 G
Landing Bank: 1
Landing Pitch: 0
Landing Flaps: 100
Navigation Lights: ON
Landing Lights: ON
Beacon Lights: ON
Strobe Lights: ON
viserfly

ALTITUDE CHART

viserfly

MAIN EVENTS

DATE EVENT IAS ALTITUDE
2026-04-29 15:23:36 FLYacars version 1.3.4 0 796
2026-04-29 15:23:37 Aircraft boarding in progress 0 796
2026-04-29 15:24:08 Aircraft taxiing to runway 3 796
2026-04-29 15:24:29 Detected Take-off roll, HDG 98, IAS 129kt, GS 134kt, G-force 1.1g, Pitch -1.3deg, Bank 0.1deg, Wind 271/01kt, Temp 14°C 129 780
2026-04-29 15:24:29 Airborne 129 780
2026-04-29 15:24:32 Gear UP, IAS 138kt, GS 141kt, ALT 67ft AGL 138 834
2026-04-29 15:24:37 FLAPS 0% 139kt, ALT 1115ft 139 1115
2026-04-29 15:26:02 Landing lights ON above 10000fts 197 11005
2026-04-29 15:26:39 Aircraft on Top Of Climb at 14902ft, IAS 208kt, GS 263kt, HDG 54deg, TAT -11deg, WIND 271/2kt 208 14902
2026-04-29 15:42:11 Aircraft on Top Of Descent at 12491ft, IAS 247kt, GS 297kt, HDG 67deg, TAT -9deg, WIND 270/2kt 247 12491
2026-04-29 15:44:30 Gear DOWN, IAS 240kt, GS 250kt, ALT 2383ft AGL 240 2502
2026-04-29 15:44:31 FLAPS 50% 235kt, ALT 2449ft 235 2449
2026-04-29 15:45:26 FLAPS 100% 140kt, ALT 1106ft 140 1106
2026-04-29 15:46:09 Landed at destination with a landing rate of -128fpm, G-force 1.1g, Pitch 0.4deg, Bank 0.5deg, HDG 93deg, IAS 103kt, GS 104kt, Wind 271/01kt, Temp 14°C 103 152
2026-04-29 15:46:23 Aircraft taxiing to apron 24 155
2026-04-29 15:46:34 Aircraft at gate/stand, ground services are moving into position, disembarkation has begun. Remaining FOB 479kg FLYacars v1.3.4 0 155
viserfly

ACARS DATA

DATE IAS GS ALTITUDE FUEL CONSUMED OAT FLIGHT STATUS
2026-04-29 15:24:06 0 0 796 1002 13 BOARDING
2026-04-29 15:24:36 139 140 1070 1012 14 TAKEOFF
2026-04-29 15:25:06 205 221 4363 1038 7 CLIMB
2026-04-29 15:25:36 201 227 7952 1064 0 CLIMB
2026-04-29 15:26:06 196 235 11558 1090 -6 CLIMB
2026-04-29 15:26:36 202 255 14835 1116 -11 CLIMB
2026-04-29 15:27:06 228 287 14996 1142 -12 ENROUTE
2026-04-29 15:27:36 229 288 14996 1168 -12 ENROUTE
2026-04-29 15:28:06 229 288 14994 1194 -13 ENROUTE
2026-04-29 15:28:36 229 288 14996 1220 -13 ENROUTE
2026-04-29 15:29:06 229 288 14998 1246 -13 ENROUTE
2026-04-29 15:29:36 229 288 14999 1272 -13 ENROUTE
2026-04-29 15:30:06 229 288 14998 1298 -13 ENROUTE
2026-04-29 15:30:36 229 288 14997 1325 -13 ENROUTE
2026-04-29 15:31:06 228 288 14999 1351 -12 ENROUTE
2026-04-29 15:31:36 229 288 14996 1377 -12 ENROUTE
2026-04-29 15:32:06 229 288 14996 1403 -13 ENROUTE
2026-04-29 15:32:36 229 288 14998 1429 -13 ENROUTE
2026-04-29 15:33:06 229 288 14999 1455 -12 ENROUTE
2026-04-29 15:33:36 228 288 14997 1481 -13 ENROUTE
2026-04-29 15:34:06 229 288 14997 1507 -13 ENROUTE
2026-04-29 15:34:36 229 288 14999 1534 -13 ENROUTE
2026-04-29 15:35:06 229 288 14998 1560 -13 ENROUTE
2026-04-29 15:35:36 229 289 14996 1586 -12 ENROUTE
2026-04-29 15:36:06 229 288 15001 1612 -12 ENROUTE
2026-04-29 15:36:36 229 288 15000 1638 -13 ENROUTE
2026-04-29 15:37:06 229 288 14997 1664 -13 ENROUTE
2026-04-29 15:37:36 229 288 14999 1690 -14 ENROUTE
2026-04-29 15:38:06 229 288 14997 1716 -14 ENROUTE
2026-04-29 15:38:36 229 288 14998 1742 -14 ENROUTE
2026-04-29 15:39:06 229 288 14997 1769 -14 ENROUTE
2026-04-29 15:39:36 229 288 15000 1795 -14 ENROUTE
2026-04-29 15:40:06 229 288 14997 1821 -14 ENROUTE
2026-04-29 15:40:36 229 288 14998 1847 -14 ENROUTE
2026-04-29 15:41:06 229 288 14996 1873 -14 ENROUTE
2026-04-29 15:41:36 229 288 14995 1899 -14 ENROUTE
2026-04-29 15:42:06 246 299 12925 1924 -10 DESCENT
2026-04-29 15:42:36 250 291 10123 1949 -5 DESCENT
2026-04-29 15:43:06 256 285 7322 1973 0 DESCENT
2026-04-29 15:43:36 257 276 4542 1998 5 DESCENT
2026-04-29 15:44:06 242 253 3018 2022 9 ENROUTE
2026-04-29 15:44:36 176 183 2031 2044 11 APPROACH
2026-04-29 15:45:06 116 121 1806 2057 11 APPROACH
2026-04-29 15:45:36 115 118 747 2065 13 ON FINAL
2026-04-29 15:46:06 106 107 157 2068 14 ON FINAL
  • Join our VA!

    It has been 11 years of great learning, friendships, and stories.

  • Sign up now!